Ravenna, Michigan
Current Conditions -  °F | °C
As of 11:55 PM on Friday 24 Oct 2014 (Local Time) from KMKG Reporting Station
Haze Haze  
Wind Chill: 48°   Ceiling: 8500
Heat Index: 48°   Visibility: 2.5mi
Dew Point: 45°   Wind: 3mph
Humidity: 89%   Direction: 130°SE
Pressure: 29.93"   Gusts: NA
Location:  43.19°N, 85.94°W
Report Text: KMKG 250355Z AUTO 13003KT 2 1/2SM BR BKN085 BKN100 09/07 A2993 RMK AO2 SLP135 T00890072
Loading
Personal Weather Stations






























Interactive Weather Map
Tropical Storm Tracking
New forecast layout! Learn more

10-Day Weather Forecast

Advertisements
Track Severe Weather on mobile